sensor_id;sensor_type;location;lat;lon;timestamp;P1;durP1;ratioP1;P2;durP2;ratioP2
21905;SDS011;11117;48.644;9.006;2023-02-11T00:02:08;77.57;;;30.30;;
21905;SDS011;11117;48.644;9.006;2023-02-11T00:04:34;76.47;;;30.40;;
21905;SDS011;11117;48.644;9.006;2023-02-11T00:06:59;75.87;;;30.67;;
21905;SDS011;11117;48.644;9.006;2023-02-11T00:09:25;68.10;;;29.70;;
21905;SDS011;11117;48.644;9.006;2023-02-11T00:11:50;74.50;;;31.27;;
21905;SDS011;11117;48.644;9.006;2023-02-11T00:14:16;73.43;;;30.70;;
21905;SDS011;11117;48.644;9.006;2023-02-11T00:16:41;76.50;;;32.57;;
21905;SDS011;11117;48.644;9.006;2023-02-11T00:19:08;76.90;;;33.57;;
21905;SDS011;11117;48.644;9.006;2023-02-11T00:21:34;77.60;;;30.80;;
21905;SDS011;11117;48.644;9.006;2023-02-11T00:23:59;72.13;;;28.30;;
21905;SDS011;11117;48.644;9.006;2023-02-11T00:26:26;79.43;;;31.13;;
21905;SDS011;11117;48.644;9.006;2023-02-11T00:28:54;80.57;;;31.03;;
21905;SDS011;11117;48.644;9.006;2023-02-11T00:31:20;82.17;;;32.23;;
21905;SDS011;11117;48.644;9.006;2023-02-11T00:33:47;75.43;;;31.77;;
21905;SDS011;11117;48.644;9.006;2023-02-11T00:36:14;86.13;;;32.73;;
21905;SDS011;11117;48.644;9.006;2023-02-11T00:38:42;84.17;;;33.93;;
21905;SDS011;11117;48.644;9.006;2023-02-11T00:41:08;83.37;;;31.77;;
21905;SDS011;11117;48.644;9.006;2023-02-11T00:43:34;73.97;;;31.60;;
21905;SDS011;11117;48.644;9.006;2023-02-11T00:46:00;78.93;;;33.97;;
21905;SDS011;11117;48.644;9.006;2023-02-11T00:48:25;78.80;;;33.50;;
21905;SDS011;11117;48.644;9.006;2023-02-11T00:50:51;76.10;;;33.10;;
21905;SDS011;11117;48.644;9.006;2023-02-11T00:53:16;86.93;;;33.00;;
21905;SDS011;11117;48.644;9.006;2023-02-11T00:55:42;83.27;;;32.07;;
21905;SDS011;11117;48.644;9.006;2023-02-11T00:58:07;80.43;;;33.40;;
21905;SDS011;11117;48.644;9.006;2023-02-11T01:00:33;76.87;;;32.13;;
21905;SDS011;11117;48.644;9.006;2023-02-11T01:02:58;77.67;;;32.37;;
21905;SDS011;11117;48.644;9.006;2023-02-11T01:05:24;80.37;;;31.77;;
21905;SDS011;11117;48.644;9.006;2023-02-11T01:07:49;77.17;;;32.80;;
21905;SDS011;11117;48.644;9.006;2023-02-11T01:10:15;80.87;;;32.73;;
21905;SDS011;11117;48.644;9.006;2023-02-11T01:12:41;78.90;;;32.07;;
21905;SDS011;11117;48.644;9.006;2023-02-11T01:15:07;80.07;;;32.73;;
21905;SDS011;11117;48.644;9.006;2023-02-11T01:17:33;73.20;;;31.73;;
21905;SDS011;11117;48.644;9.006;2023-02-11T01:20:04;84.47;;;32.57;;
21905;SDS011;11117;48.644;9.006;2023-02-11T01:22:31;75.23;;;30.97;;
21905;SDS011;11117;48.644;9.006;2023-02-11T01:24:56;79.73;;;31.23;;
21905;SDS011;11117;48.644;9.006;2023-02-11T01:27:22;73.47;;;30.97;;
21905;SDS011;11117;48.644;9.006;2023-02-11T01:29:47;75.90;;;30.87;;
21905;SDS011;11117;48.644;9.006;2023-02-11T01:32:13;72.57;;;30.93;;
21905;SDS011;11117;48.644;9.006;2023-02-11T01:34:38;78.90;;;30.43;;
21905;SDS011;11117;48.644;9.006;2023-02-11T01:37:04;80.83;;;30.43;;
21905;SDS011;11117;48.644;9.006;2023-02-11T01:39:31;69.20;;;29.03;;
21905;SDS011;11117;48.644;9.006;2023-02-11T01:41:57;71.30;;;29.60;;
21905;SDS011;11117;48.644;9.006;2023-02-11T01:44:31;76.97;;;30.93;;
21905;SDS011;11117;48.644;9.006;2023-02-11T01:47:00;73.77;;;30.00;;
21905;SDS011;11117;48.644;9.006;2023-02-11T01:49:27;72.60;;;30.20;;
21905;SDS011;11117;48.644;9.006;2023-02-11T01:54:31;70.93;;;29.37;;
21905;SDS011;11117;48.644;9.006;2023-02-11T01:57:00;70.33;;;29.60;;
21905;SDS011;11117;48.644;9.006;2023-02-11T01:59:29;75.37;;;31.23;;
21905;SDS011;11117;48.644;9.006;2023-02-11T02:02:05;73.27;;;29.50;;
21905;SDS011;11117;48.644;9.006;2023-02-11T02:04:38;76.47;;;28.27;;
21905;SDS011;11117;48.644;9.006;2023-02-11T02:07:33;64.53;;;27.57;;
21905;SDS011;11117;48.644;9.006;2023-02-11T02:10:08;72.87;;;29.03;;
21905;SDS011;11117;48.644;9.006;2023-02-11T02:12:37;70.90;;;29.27;;
21905;SDS011;11117;48.644;9.006;2023-02-11T02:15:19;79.23;;;29.07;;
21905;SDS011;11117;48.644;9.006;2023-02-11T02:17:59;75.53;;;28.70;;
21905;SDS011;11117;48.644;9.006;2023-02-11T02:25:51;76.33;;;30.10;;
21905;SDS011;11117;48.644;9.006;2023-02-11T02:28:48;73.20;;;29.23;;
21905;SDS011;11117;48.644;9.006;2023-02-11T02:31:28;70.80;;;28.03;;
21905;SDS011;11117;48.644;9.006;2023-02-11T02:34:01;68.37;;;28.00;;
21905;SDS011;11117;48.644;9.006;2023-02-11T02:39:46;61.87;;;26.03;;
21905;SDS011;11117;48.644;9.006;2023-02-11T02:42:04;72.70;;;28.77;;
21905;SDS011;11117;48.644;9.006;2023-02-11T02:44:30;80.77;;;30.50;;
21905;SDS011;11117;48.644;9.006;2023-02-11T02:46:56;71.57;;;29.80;;
21905;SDS011;11117;48.644;9.006;2023-02-11T02:49:21;71.93;;;30.10;;
21905;SDS011;11117;48.644;9.006;2023-02-11T03:05:20;75.23;;;30.23;;
21905;SDS011;11117;48.644;9.006;2023-02-11T03:07:55;69.57;;;28.07;;
21905;SDS011;11117;48.644;9.006;2023-02-11T03:10:45;74.50;;;29.53;;
21905;SDS011;11117;48.644;9.006;2023-02-11T03:13:15;79.13;;;28.43;;
21905;SDS011;11117;48.644;9.006;2023-02-11T03:15:44;70.07;;;28.43;;
21905;SDS011;11117;48.644;9.006;2023-02-11T03:18:14;75.53;;;30.67;;
21905;SDS011;11117;48.644;9.006;2023-02-11T03:20:43;74.13;;;30.33;;
21905;SDS011;11117;48.644;9.006;2023-02-11T03:23:14;68.37;;;29.40;;
21905;SDS011;11117;48.644;9.006;2023-02-11T03:25:49;71.80;;;29.80;;
21905;SDS011;11117;48.644;9.006;2023-02-11T03:28:38;73.73;;;28.93;;
21905;SDS011;11117;48.644;9.006;2023-02-11T03:31:15;73.50;;;29.87;;
21905;SDS011;11117;48.644;9.006;2023-02-11T03:36:58;70.10;;;26.57;;
21905;SDS011;11117;48.644;9.006;2023-02-11T03:39:42;71.27;;;29.60;;
21905;SDS011;11117;48.644;9.006;2023-02-11T03:42:11;75.77;;;29.67;;
21905;SDS011;11117;48.644;9.006;2023-02-11T03:44:41;72.03;;;28.77;;
21905;SDS011;11117;48.644;9.006;2023-02-11T03:47:12;73.30;;;29.23;;
21905;SDS011;11117;48.644;9.006;2023-02-11T03:49:40;70.53;;;29.67;;
21905;SDS011;11117;48.644;9.006;2023-02-11T03:52:09;76.70;;;30.07;;
21905;SDS011;11117;48.644;9.006;2023-02-11T03:54:36;74.33;;;30.57;;
21905;SDS011;11117;48.644;9.006;2023-02-11T03:57:05;69.27;;;28.87;;
21905;SDS011;11117;48.644;9.006;2023-02-11T03:59:30;71.50;;;30.00;;
21905;SDS011;11117;48.644;9.006;2023-02-11T04:01:56;68.43;;;27.83;;
21905;SDS011;11117;48.644;9.006;2023-02-11T04:04:22;74.53;;;29.37;;
21905;SDS011;11117;48.644;9.006;2023-02-11T04:06:47;75.10;;;28.70;;
21905;SDS011;11117;48.644;9.006;2023-02-11T04:09:12;63.90;;;29.10;;
21905;SDS011;11117;48.644;9.006;2023-02-11T04:11:38;69.40;;;29.47;;
21905;SDS011;11117;48.644;9.006;2023-02-11T04:14:04;68.50;;;29.37;;
21905;SDS011;11117;48.644;9.006;2023-02-11T04:16:29;71.57;;;29.43;;
21905;SDS011;11117;48.644;9.006;2023-02-11T04:18:55;68.67;;;29.10;;
21905;SDS011;11117;48.644;9.006;2023-02-11T04:21:21;69.80;;;28.40;;
21905;SDS011;11117;48.644;9.006;2023-02-11T04:23:46;69.77;;;29.67;;
21905;SDS011;11117;48.644;9.006;2023-02-11T04:26:12;64.43;;;26.03;;
21905;SDS011;11117;48.644;9.006;2023-02-11T04:28:38;66.67;;;28.67;;
21905;SDS011;11117;48.644;9.006;2023-02-11T04:31:03;69.97;;;27.03;;
21905;SDS011;11117;48.644;9.006;2023-02-11T04:33:29;65.60;;;28.07;;
21905;SDS011;11117;48.644;9.006;2023-02-11T04:35:55;67.17;;;28.50;;
21905;SDS011;11117;48.644;9.006;2023-02-11T04:38:20;69.10;;;28.90;;
21905;SDS011;11117;48.644;9.006;2023-02-11T04:40:46;65.07;;;28.17;;
21905;SDS011;11117;48.644;9.006;2023-02-11T04:43:11;60.90;;;27.17;;
21905;SDS011;11117;48.644;9.006;2023-02-11T04:45:37;62.83;;;28.13;;
21905;SDS011;11117;48.644;9.006;2023-02-11T04:48:02;66.57;;;29.37;;
21905;SDS011;11117;48.644;9.006;2023-02-11T04:50:28;82.77;;;34.13;;
21905;SDS011;11117;48.644;9.006;2023-02-11T04:52:54;78.87;;;35.03;;
21905;SDS011;11117;48.644;9.006;2023-02-11T04:55:19;71.97;;;33.33;;
21905;SDS011;11117;48.644;9.006;2023-02-11T04:57:45;72.03;;;30.87;;
21905;SDS011;11117;48.644;9.006;2023-02-11T05:00:10;67.30;;;29.77;;
21905;SDS011;11117;48.644;9.006;2023-02-11T05:02:36;67.00;;;31.10;;
21905;SDS011;11117;48.644;9.006;2023-02-11T05:05:02;69.83;;;30.87;;
21905;SDS011;11117;48.644;9.006;2023-02-11T05:07:28;68.80;;;30.23;;
21905;SDS011;11117;48.644;9.006;2023-02-11T05:09:53;66.23;;;29.43;;
21905;SDS011;11117;48.644;9.006;2023-02-11T05:12:19;65.80;;;30.17;;
21905;SDS011;11117;48.644;9.006;2023-02-11T05:14:44;66.20;;;30.03;;
21905;SDS011;11117;48.644;9.006;2023-02-11T05:17:10;63.63;;;28.90;;
21905;SDS011;11117;48.644;9.006;2023-02-11T05:19:35;61.50;;;27.93;;
21905;SDS011;11117;48.644;9.006;2023-02-11T05:22:01;58.53;;;28.43;;
21905;SDS011;11117;48.644;9.006;2023-02-11T05:24:26;59.70;;;27.57;;
21905;SDS011;11117;48.644;9.006;2023-02-11T05:26:52;61.00;;;27.37;;
21905;SDS011;11117;48.644;9.006;2023-02-11T05:29:18;68.37;;;28.53;;
21905;SDS011;11117;48.644;9.006;2023-02-11T05:31:43;64.07;;;28.47;;
21905;SDS011;11117;48.644;9.006;2023-02-11T05:34:09;63.00;;;27.70;;
21905;SDS011;11117;48.644;9.006;2023-02-11T05:36:34;78.33;;;38.90;;
21905;SDS011;11117;48.644;9.006;2023-02-11T05:39:00;67.67;;;30.77;;
21905;SDS011;11117;48.644;9.006;2023-02-11T05:41:25;71.73;;;34.50;;
21905;SDS011;11117;48.644;9.006;2023-02-11T05:43:51;72.73;;;35.43;;
21905;SDS011;11117;48.644;9.006;2023-02-11T05:46:16;75.43;;;34.30;;
21905;SDS011;11117;48.644;9.006;2023-02-11T05:48:42;68.30;;;29.40;;
21905;SDS011;11117;48.644;9.006;2023-02-11T05:51:08;83.70;;;41.07;;
21905;SDS011;11117;48.644;9.006;2023-02-11T05:53:34;72.93;;;34.10;;
21905;SDS011;11117;48.644;9.006;2023-02-11T05:55:59;69.23;;;31.57;;
21905;SDS011;11117;48.644;9.006;2023-02-11T05:58:25;75.30;;;37.47;;
21905;SDS011;11117;48.644;9.006;2023-02-11T06:00:51;62.47;;;27.67;;
21905;SDS011;11117;48.644;9.006;2023-02-11T06:03:16;58.73;;;27.90;;
21905;SDS011;11117;48.644;9.006;2023-02-11T06:05:43;65.93;;;28.30;;
21905;SDS011;11117;48.644;9.006;2023-02-11T06:08:08;60.03;;;26.10;;
21905;SDS011;11117;48.644;9.006;2023-02-11T06:10:34;56.50;;;25.83;;
21905;SDS011;11117;48.644;9.006;2023-02-11T06:13:00;54.70;;;26.00;;
21905;SDS011;11117;48.644;9.006;2023-02-11T06:15:26;61.77;;;27.10;;
21905;SDS011;11117;48.644;9.006;2023-02-11T06:17:52;57.57;;;25.87;;
21905;SDS011;11117;48.644;9.006;2023-02-11T06:20:17;58.90;;;25.53;;
21905;SDS011;11117;48.644;9.006;2023-02-11T06:22:43;55.73;;;28.10;;
21905;SDS011;11117;48.644;9.006;2023-02-11T06:25:08;59.40;;;27.73;;
21905;SDS011;11117;48.644;9.006;2023-02-11T06:27:34;56.37;;;25.83;;
21905;SDS011;11117;48.644;9.006;2023-02-11T06:30:00;59.27;;;26.43;;
21905;SDS011;11117;48.644;9.006;2023-02-11T06:32:26;59.50;;;26.90;;
21905;SDS011;11117;48.644;9.006;2023-02-11T06:34:52;58.53;;;26.70;;
21905;SDS011;11117;48.644;9.006;2023-02-11T06:37:17;56.17;;;24.33;;
21905;SDS011;11117;48.644;9.006;2023-02-11T06:39:43;55.03;;;24.93;;
21905;SDS011;11117;48.644;9.006;2023-02-11T06:42:09;51.97;;;25.20;;
21905;SDS011;11117;48.644;9.006;2023-02-11T06:44:34;60.27;;;28.13;;
21905;SDS011;11117;48.644;9.006;2023-02-11T06:47:00;56.37;;;28.20;;
21905;SDS011;11117;48.644;9.006;2023-02-11T06:49:25;59.80;;;28.20;;
21905;SDS011;11117;48.644;9.006;2023-02-11T06:51:51;54.90;;;27.40;;
21905;SDS011;11117;48.644;9.006;2023-02-11T06:54:16;60.10;;;26.77;;
21905;SDS011;11117;48.644;9.006;2023-02-11T06:56:42;55.73;;;26.60;;
21905;SDS011;11117;48.644;9.006;2023-02-11T06:59:07;55.37;;;26.80;;
21905;SDS011;11117;48.644;9.006;2023-02-11T07:01:37;61.40;;;27.70;;
21905;SDS011;11117;48.644;9.006;2023-02-11T07:04:03;57.80;;;27.37;;
21905;SDS011;11117;48.644;9.006;2023-02-11T07:06:28;61.57;;;28.43;;
21905;SDS011;11117;48.644;9.006;2023-02-11T07:08:54;58.83;;;28.73;;
21905;SDS011;11117;48.644;9.006;2023-02-11T07:11:21;56.17;;;27.73;;
21905;SDS011;11117;48.644;9.006;2023-02-11T07:13:49;63.10;;;28.97;;
21905;SDS011;11117;48.644;9.006;2023-02-11T07:16:16;55.30;;;26.63;;
21905;SDS011;11117;48.644;9.006;2023-02-11T07:18:43;58.70;;;27.43;;
21905;SDS011;11117;48.644;9.006;2023-02-11T07:21:11;58.77;;;27.90;;
21905;SDS011;11117;48.644;9.006;2023-02-11T07:23:37;55.37;;;28.43;;
21905;SDS011;11117;48.644;9.006;2023-02-11T07:26:07;56.90;;;28.87;;
21905;SDS011;11117;48.644;9.006;2023-02-11T07:28:35;59.37;;;29.80;;
21905;SDS011;11117;48.644;9.006;2023-02-11T07:31:05;59.73;;;29.33;;
21905;SDS011;11117;48.644;9.006;2023-02-11T07:33:41;59.00;;;29.53;;
21905;SDS011;11117;48.644;9.006;2023-02-11T07:36:07;59.47;;;27.90;;
21905;SDS011;11117;48.644;9.006;2023-02-11T07:38:34;59.10;;;28.03;;
21905;SDS011;11117;48.644;9.006;2023-02-11T07:41:01;49.23;;;25.60;;
21905;SDS011;11117;48.644;9.006;2023-02-11T07:43:29;58.50;;;27.87;;
21905;SDS011;11117;48.644;9.006;2023-02-11T07:45:55;57.30;;;28.53;;
21905;SDS011;11117;48.644;9.006;2023-02-11T07:48:21;64.07;;;30.50;;
21905;SDS011;11117;48.644;9.006;2023-02-11T07:50:46;57.57;;;28.90;;
21905;SDS011;11117;48.644;9.006;2023-02-11T07:53:12;58.07;;;28.87;;
21905;SDS011;11117;48.644;9.006;2023-02-11T07:55:38;58.63;;;27.87;;
21905;SDS011;11117;48.644;9.006;2023-02-11T07:58:04;55.83;;;28.53;;
21905;SDS011;11117;48.644;9.006;2023-02-11T08:00:29;54.83;;;28.57;;
21905;SDS011;11117;48.644;9.006;2023-02-11T08:02:58;54.57;;;26.60;;
21905;SDS011;11117;48.644;9.006;2023-02-11T08:05:24;53.40;;;25.57;;
21905;SDS011;11117;48.644;9.006;2023-02-11T08:07:50;47.40;;;23.77;;
21905;SDS011;11117;48.644;9.006;2023-02-11T08:10:17;50.17;;;25.47;;
21905;SDS011;11117;48.644;9.006;2023-02-11T08:12:42;58.83;;;28.13;;
21905;SDS011;11117;48.644;9.006;2023-02-11T08:15:08;53.83;;;25.10;;
21905;SDS011;11117;48.644;9.006;2023-02-11T08:17:34;55.20;;;25.03;;
21905;SDS011;11117;48.644;9.006;2023-02-11T08:20:00;51.70;;;24.00;;
21905;SDS011;11117;48.644;9.006;2023-02-11T08:22:26;50.43;;;25.67;;
21905;SDS011;11117;48.644;9.006;2023-02-11T08:24:51;51.53;;;25.50;;
21905;SDS011;11117;48.644;9.006;2023-02-11T08:27:17;48.37;;;23.80;;
21905;SDS011;11117;48.644;9.006;2023-02-11T08:29:42;51.10;;;23.97;;
21905;SDS011;11117;48.644;9.006;2023-02-11T08:32:08;50.07;;;27.17;;
21905;SDS011;11117;48.644;9.006;2023-02-11T08:34:34;50.10;;;25.33;;
21905;SDS011;11117;48.644;9.006;2023-02-11T08:37:00;50.53;;;24.97;;
21905;SDS011;11117;48.644;9.006;2023-02-11T08:39:25;51.47;;;27.23;;
21905;SDS011;11117;48.644;9.006;2023-02-11T08:41:51;44.53;;;23.37;;
21905;SDS011;11117;48.644;9.006;2023-02-11T08:44:30;48.33;;;23.63;;
21905;SDS011;11117;48.644;9.006;2023-02-11T08:46:56;46.17;;;25.40;;
21905;SDS011;11117;48.644;9.006;2023-02-11T08:49:21;50.33;;;24.13;;
21905;SDS011;11117;48.644;9.006;2023-02-11T08:51:47;45.73;;;23.17;;
21905;SDS011;11117;48.644;9.006;2023-02-11T08:54:13;43.40;;;22.80;;
21905;SDS011;11117;48.644;9.006;2023-02-11T08:56:39;43.53;;;23.27;;
21905;SDS011;11117;48.644;9.006;2023-02-11T08:59:06;48.67;;;24.20;;
21905;SDS011;11117;48.644;9.006;2023-02-11T09:01:32;48.50;;;24.33;;
21905;SDS011;11117;48.644;9.006;2023-02-11T09:03:57;41.90;;;21.53;;
21905;SDS011;11117;48.644;9.006;2023-02-11T09:06:23;40.53;;;21.27;;
21905;SDS011;11117;48.644;9.006;2023-02-11T09:08:51;39.70;;;21.00;;
21905;SDS011;11117;48.644;9.006;2023-02-11T09:11:19;39.57;;;20.97;;
21905;SDS011;11117;48.644;9.006;2023-02-11T09:13:46;39.83;;;20.50;;
21905;SDS011;11117;48.644;9.006;2023-02-11T09:16:19;38.93;;;20.53;;
21905;SDS011;11117;48.644;9.006;2023-02-11T09:18:49;41.63;;;21.00;;
21905;SDS011;11117;48.644;9.006;2023-02-11T09:21:15;39.80;;;20.57;;
21905;SDS011;11117;48.644;9.006;2023-02-11T09:23:41;41.23;;;21.17;;
21905;SDS011;11117;48.644;9.006;2023-02-11T09:26:07;42.20;;;21.63;;
21905;SDS011;11117;48.644;9.006;2023-02-11T09:28:34;54.37;;;28.13;;
21905;SDS011;11117;48.644;9.006;2023-02-11T09:31:07;39.70;;;20.33;;
21905;SDS011;11117;48.644;9.006;2023-02-11T09:33:34;41.90;;;20.13;;
21905;SDS011;11117;48.644;9.006;2023-02-11T09:36:02;36.50;;;20.20;;
21905;SDS011;11117;48.644;9.006;2023-02-11T09:38:29;40.60;;;20.23;;
21905;SDS011;11117;48.644;9.006;2023-02-11T09:40:55;36.13;;;20.03;;
21905;SDS011;11117;48.644;9.006;2023-02-11T09:46:02;35.43;;;19.40;;
21905;SDS011;11117;48.644;9.006;2023-02-11T09:48:29;33.50;;;19.77;;
21905;SDS011;11117;48.644;9.006;2023-02-11T09:51:03;34.43;;;18.80;;
21905;SDS011;11117;48.644;9.006;2023-02-11T09:53:31;34.87;;;18.93;;
21905;SDS011;11117;48.644;9.006;2023-02-11T09:56:08;36.70;;;18.87;;
21905;SDS011;11117;48.644;9.006;2023-02-11T09:58:37;33.27;;;17.67;;
21905;SDS011;11117;48.644;9.006;2023-02-11T10:04:06;31.23;;;16.70;;
21905;SDS011;11117;48.644;9.006;2023-02-11T10:06:40;33.77;;;16.80;;
21905;SDS011;11117;48.644;9.006;2023-02-11T10:17:21;31.57;;;17.73;;
21905;SDS011;11117;48.644;9.006;2023-02-11T10:20:00;30.53;;;16.80;;
21905;SDS011;11117;48.644;9.006;2023-02-11T10:22:31;29.60;;;17.37;;
21905;SDS011;11117;48.644;9.006;2023-02-11T10:27:53;31.57;;;16.67;;
21905;SDS011;11117;48.644;9.006;2023-02-11T10:30:30;30.10;;;16.33;;
21905;SDS011;11117;48.644;9.006;2023-02-11T10:37:05;31.77;;;18.30;;
21905;SDS011;11117;48.644;9.006;2023-02-11T10:43:33;32.27;;;17.90;;
21905;SDS011;11117;48.644;9.006;2023-02-11T10:53:09;28.57;;;16.53;;
21905;SDS011;11117;48.644;9.006;2023-02-11T10:59:46;27.90;;;15.40;;
21905;SDS011;11117;48.644;9.006;2023-02-11T11:02:44;23.17;;;13.60;;
21905;SDS011;11117;48.644;9.006;2023-02-11T11:08:43;22.47;;;13.37;;
21905;SDS011;11117;48.644;9.006;2023-02-11T11:11:26;24.73;;;13.73;;
21905;SDS011;11117;48.644;9.006;2023-02-11T11:18:13;21.47;;;12.27;;
21905;SDS011;11117;48.644;9.006;2023-02-11T11:21:02;19.20;;;12.30;;
21905;SDS011;11117;48.644;9.006;2023-02-11T11:23:40;25.23;;;11.90;;
21905;SDS011;11117;48.644;9.006;2023-02-11T11:26:42;26.07;;;12.93;;
21905;SDS011;11117;48.644;9.006;2023-02-11T11:30:21;20.70;;;12.10;;
21905;SDS011;11117;48.644;9.006;2023-02-11T11:36:08;23.43;;;12.70;;
21905;SDS011;11117;48.644;9.006;2023-02-11T11:48:05;18.73;;;11.60;;
21905;SDS011;11117;48.644;9.006;2023-02-11T11:50:52;20.77;;;11.30;;
21905;SDS011;11117;48.644;9.006;2023-02-11T11:58:45;17.83;;;10.47;;
21905;SDS011;11117;48.644;9.006;2023-02-11T12:07:37;14.20;;;8.20;;
21905;SDS011;11117;48.644;9.006;2023-02-11T12:18:27;16.10;;;10.10;;
21905;SDS011;11117;48.644;9.006;2023-02-11T12:26:23;18.40;;;9.10;;
21905;SDS011;11117;48.644;9.006;2023-02-11T12:45:48;16.17;;;9.97;;
21905;SDS011;11117;48.644;9.006;2023-02-11T12:48:24;19.07;;;10.50;;
21905;SDS011;11117;48.644;9.006;2023-02-11T12:59:13;21.03;;;10.40;;
21905;SDS011;11117;48.644;9.006;2023-02-11T13:01:49;13.47;;;8.50;;
21905;SDS011;11117;48.644;9.006;2023-02-11T13:04:24;8.87;;;5.57;;
21905;SDS011;11117;48.644;9.006;2023-02-11T13:06:58;13.13;;;8.07;;
21905;SDS011;11117;48.644;9.006;2023-02-11T13:09:44;14.00;;;8.33;;
21905;SDS011;11117;48.644;9.006;2023-02-11T13:12:18;12.43;;;7.60;;
21905;SDS011;11117;48.644;9.006;2023-02-11T13:14:44;16.47;;;6.93;;
21905;SDS011;11117;48.644;9.006;2023-02-11T13:17:13;14.73;;;7.53;;
21905;SDS011;11117;48.644;9.006;2023-02-11T13:19:47;13.63;;;8.07;;
21905;SDS011;11117;48.644;9.006;2023-02-11T13:24:55;18.07;;;8.30;;
21905;SDS011;11117;48.644;9.006;2023-02-11T13:27:29;14.07;;;8.50;;
21905;SDS011;11117;48.644;9.006;2023-02-11T13:35:36;17.77;;;8.23;;
21905;SDS011;11117;48.644;9.006;2023-02-11T13:43:41;11.13;;;7.47;;
21905;SDS011;11117;48.644;9.006;2023-02-11T13:46:09;11.60;;;7.30;;
21905;SDS011;11117;48.644;9.006;2023-02-11T13:48:47;13.00;;;7.47;;
21905;SDS011;11117;48.644;9.006;2023-02-11T13:51:15;12.87;;;7.80;;
21905;SDS011;11117;48.644;9.006;2023-02-11T13:53:44;17.03;;;7.50;;
21905;SDS011;11117;48.644;9.006;2023-02-11T13:56:11;13.83;;;8.13;;
21905;SDS011;11117;48.644;9.006;2023-02-11T13:58:52;14.43;;;8.00;;
21905;SDS011;11117;48.644;9.006;2023-02-11T14:04:21;14.10;;;8.40;;
21905;SDS011;11117;48.644;9.006;2023-02-11T14:07:32;15.53;;;8.33;;
21905;SDS011;11117;48.644;9.006;2023-02-11T14:09:47;17.77;;;8.50;;
21905;SDS011;11117;48.644;9.006;2023-02-11T14:12:21;13.77;;;8.17;;
21905;SDS011;11117;48.644;9.006;2023-02-11T14:15:35;13.23;;;7.63;;
21905;SDS011;11117;48.644;9.006;2023-02-11T14:17:34;18.33;;;8.80;;
21905;SDS011;11117;48.644;9.006;2023-02-11T14:20:01;15.07;;;8.43;;
21905;SDS011;11117;48.644;9.006;2023-02-11T14:22:29;13.80;;;8.87;;
21905;SDS011;11117;48.644;9.006;2023-02-11T14:25:23;13.20;;;8.50;;
21905;SDS011;11117;48.644;9.006;2023-02-11T14:41:19;12.27;;;8.00;;
21905;SDS011;11117;48.644;9.006;2023-02-11T14:43:47;13.60;;;8.90;;
21905;SDS011;11117;48.644;9.006;2023-02-11T14:46:16;14.17;;;8.80;;
21905;SDS011;11117;48.644;9.006;2023-02-11T14:48:44;17.63;;;9.07;;
21905;SDS011;11117;48.644;9.006;2023-02-11T14:51:14;16.47;;;9.43;;
21905;SDS011;11117;48.644;9.006;2023-02-11T14:53:46;20.97;;;10.70;;
21905;SDS011;11117;48.644;9.006;2023-02-11T14:56:19;20.30;;;10.47;;
21905;SDS011;11117;48.644;9.006;2023-02-11T14:58:49;18.60;;;10.20;;
21905;SDS011;11117;48.644;9.006;2023-02-11T15:03:54;21.13;;;10.23;;
21905;SDS011;11117;48.644;9.006;2023-02-11T15:06:21;23.03;;;11.90;;
21905;SDS011;11117;48.644;9.006;2023-02-11T15:08:50;19.70;;;11.00;;
21905;SDS011;11117;48.644;9.006;2023-02-11T15:11:31;22.27;;;12.10;;
21905;SDS011;11117;48.644;9.006;2023-02-11T15:14:45;23.00;;;11.87;;
21905;SDS011;11117;48.644;9.006;2023-02-11T15:16:58;26.47;;;12.57;;
21905;SDS011;11117;48.644;9.006;2023-02-11T15:19:28;27.47;;;11.40;;
21905;SDS011;11117;48.644;9.006;2023-02-11T15:21:54;26.70;;;13.47;;
21905;SDS011;11117;48.644;9.006;2023-02-11T15:24:21;26.73;;;13.80;;
21905;SDS011;11117;48.644;9.006;2023-02-11T15:29:34;24.80;;;13.60;;
21905;SDS011;11117;48.644;9.006;2023-02-11T15:32:06;27.17;;;13.67;;
21905;SDS011;11117;48.644;9.006;2023-02-11T15:34:39;47.43;;;23.37;;
21905;SDS011;11117;48.644;9.006;2023-02-11T15:37:05;33.23;;;16.23;;
21905;SDS011;11117;48.644;9.006;2023-02-11T15:39:32;26.83;;;13.67;;
21905;SDS011;11117;48.644;9.006;2023-02-11T15:42:18;28.50;;;14.03;;
21905;SDS011;11117;48.644;9.006;2023-02-11T15:44:44;24.87;;;13.23;;
21905;SDS011;11117;48.644;9.006;2023-02-11T15:47:11;22.03;;;12.83;;
21905;SDS011;11117;48.644;9.006;2023-02-11T15:49:42;27.60;;;12.80;;
21905;SDS011;11117;48.644;9.006;2023-02-11T15:52:09;27.87;;;12.97;;
21905;SDS011;11117;48.644;9.006;2023-02-11T15:54:36;25.20;;;12.73;;
21905;SDS011;11117;48.644;9.006;2023-02-11T15:57:04;21.83;;;12.30;;
21905;SDS011;11117;48.644;9.006;2023-02-11T15:59:44;22.27;;;12.53;;
21905;SDS011;11117;48.644;9.006;2023-02-11T16:04:52;24.17;;;12.47;;
21905;SDS011;11117;48.644;9.006;2023-02-11T16:07:40;25.30;;;12.97;;
21905;SDS011;11117;48.644;9.006;2023-02-11T16:10:17;23.23;;;13.07;;
21905;SDS011;11117;48.644;9.006;2023-02-11T16:13:02;25.40;;;12.70;;
21905;SDS011;11117;48.644;9.006;2023-02-11T16:15:48;27.73;;;14.10;;
21905;SDS011;11117;48.644;9.006;2023-02-11T16:18:37;23.13;;;12.77;;
21905;SDS011;11117;48.644;9.006;2023-02-11T16:21:13;24.13;;;13.40;;
21905;SDS011;11117;48.644;9.006;2023-02-11T16:23:41;28.70;;;13.43;;
21905;SDS011;11117;48.644;9.006;2023-02-11T16:26:24;27.57;;;14.67;;
21905;SDS011;11117;48.644;9.006;2023-02-11T16:29:06;27.43;;;15.37;;
21905;SDS011;11117;48.644;9.006;2023-02-11T16:31:37;27.70;;;14.67;;
21905;SDS011;11117;48.644;9.006;2023-02-11T16:34:09;28.53;;;14.77;;
21905;SDS011;11117;48.644;9.006;2023-02-11T16:36:43;27.33;;;14.30;;
21905;SDS011;11117;48.644;9.006;2023-02-11T16:39:10;27.20;;;15.10;;
21905;SDS011;11117;48.644;9.006;2023-02-11T16:41:35;30.20;;;15.83;;
21905;SDS011;11117;48.644;9.006;2023-02-11T16:44:01;27.07;;;15.47;;
21905;SDS011;11117;48.644;9.006;2023-02-11T16:46:26;23.70;;;12.37;;
21905;SDS011;11117;48.644;9.006;2023-02-11T16:48:53;30.13;;;16.77;;
21905;SDS011;11117;48.644;9.006;2023-02-11T16:51:20;38.47;;;23.07;;
21905;SDS011;11117;48.644;9.006;2023-02-11T16:53:46;50.97;;;30.60;;
21905;SDS011;11117;48.644;9.006;2023-02-11T16:56:13;42.60;;;22.63;;
21905;SDS011;11117;48.644;9.006;2023-02-11T16:58:40;46.20;;;25.53;;
21905;SDS011;11117;48.644;9.006;2023-02-11T17:01:05;31.63;;;17.43;;
21905;SDS011;11117;48.644;9.006;2023-02-11T17:03:33;37.60;;;20.37;;
21905;SDS011;11117;48.644;9.006;2023-02-11T17:06:00;34.60;;;19.47;;
21905;SDS011;11117;48.644;9.006;2023-02-11T17:08:26;42.70;;;20.60;;
21905;SDS011;11117;48.644;9.006;2023-02-11T17:10:52;39.00;;;19.50;;
21905;SDS011;11117;48.644;9.006;2023-02-11T17:13:17;39.23;;;19.93;;
21905;SDS011;11117;48.644;9.006;2023-02-11T17:15:43;40.23;;;20.20;;
21905;SDS011;11117;48.644;9.006;2023-02-11T17:18:10;41.90;;;21.57;;
21905;SDS011;11117;48.644;9.006;2023-02-11T17:20:37;36.37;;;21.20;;
21905;SDS011;11117;48.644;9.006;2023-02-11T17:23:02;40.03;;;21.20;;
21905;SDS011;11117;48.644;9.006;2023-02-11T17:25:28;37.83;;;21.43;;
21905;SDS011;11117;48.644;9.006;2023-02-11T17:27:53;41.37;;;21.17;;
21905;SDS011;11117;48.644;9.006;2023-02-11T17:30:19;47.43;;;24.33;;